createdAt,value
2022-10-23T00:00:51.213Z,2.27
2022-10-23T00:03:39.883Z,3.10
2022-10-23T00:06:29.729Z,2.83
2022-10-23T00:09:20.834Z,2.87
2022-10-23T00:12:10.248Z,2.80
2022-10-23T00:14:58.687Z,2.40
2022-10-23T00:17:49.142Z,2.30
2022-10-23T00:20:37.568Z,2.60
2022-10-23T00:23:26.200Z,2.17
2022-10-23T00:26:15.925Z,2.23
2022-10-23T00:29:04.362Z,2.30
2022-10-23T00:31:52.863Z,2.67
2022-10-23T00:34:42.655Z,3.27
2022-10-23T00:37:31.102Z,3.30
2022-10-23T00:40:19.522Z,3.10
2022-10-23T00:43:08.883Z,2.97
2022-10-23T00:45:57.526Z,2.40
2022-10-23T00:48:45.899Z,1.80
2022-10-23T00:51:40.418Z,2.17
2022-10-23T00:54:32.624Z,3.03
2022-10-23T00:57:21.028Z,4.00
2022-10-23T01:00:12.597Z,5.40
2022-10-23T01:03:01.163Z,4.50
2022-10-23T01:05:52.831Z,4.80
2022-10-23T01:08:47.369Z,4.83
2022-10-23T01:11:41.690Z,2.83
2022-10-23T01:14:35.080Z,2.40
2022-10-23T01:17:27.209Z,2.10
2022-10-23T01:20:38.277Z,2.10
2022-10-23T01:23:49.033Z,1.90
2022-10-23T01:26:51.691Z,2.40
2022-10-23T01:29:44.723Z,2.67
2022-10-23T01:32:38.100Z,3.13
2022-10-23T01:35:30.678Z,4.07
2022-10-23T01:38:22.192Z,3.63
2022-10-23T01:41:13.191Z,2.40
2022-10-23T01:44:05.800Z,1.60
2022-10-23T01:46:56.473Z,1.37
2022-10-23T01:49:46.160Z,1.43
2022-10-23T01:52:34.703Z,1.50
2022-10-23T01:55:24.511Z,1.40
2022-10-23T01:58:13.258Z,1.70
2022-10-23T02:01:05.279Z,1.60
2022-10-23T02:03:55.779Z,3.10
2022-10-23T02:06:44.254Z,3.20
2022-10-23T02:09:33.012Z,3.80
2022-10-23T02:15:28.765Z,3.60
2022-10-23T02:18:25.326Z,2.80
2022-10-23T02:21:16.762Z,2.10
2022-10-23T02:24:08.745Z,2.30
2022-10-23T02:27:00.852Z,2.10
2022-10-23T02:29:52.756Z,1.40
2022-10-23T02:32:44.450Z,1.40
2022-10-23T02:35:33.273Z,1.30
2022-10-23T02:38:31.259Z,1.10
2022-10-23T02:41:29.343Z,1.13
2022-10-23T02:44:32.456Z,0.90
2022-10-23T02:47:34.635Z,1.13
2022-10-23T02:50:28.782Z,1.30
2022-10-23T02:53:19.851Z,0.90
2022-10-23T02:56:14.263Z,1.23
2022-10-23T02:59:07.797Z,0.80
2022-10-23T03:01:59.626Z,1.13
2022-10-23T03:04:48.455Z,1.17
2022-10-23T03:07:37.340Z,0.67
2022-10-23T03:10:25.985Z,0.70
2022-10-23T03:13:15.992Z,0.53
2022-10-23T03:16:04.392Z,0.67
2022-10-23T03:18:52.874Z,0.83
2022-10-23T03:21:41.308Z,0.77
2022-10-23T03:24:29.720Z,0.63
2022-10-23T03:27:18.268Z,1.20
2022-10-23T03:30:09.591Z,1.10
2022-10-23T03:32:57.992Z,1.10
2022-10-23T03:35:49.390Z,1.00
2022-10-23T03:38:37.807Z,0.90
2022-10-23T03:41:26.208Z,1.00
2022-10-23T03:44:14.604Z,1.00
2022-10-23T03:47:04.526Z,0.70
2022-10-23T03:49:52.918Z,0.80
2022-10-23T03:52:41.913Z,0.60
2022-10-23T03:55:30.855Z,0.90
2022-10-23T03:58:19.231Z,0.70
2022-10-23T04:01:07.739Z,0.70
2022-10-23T04:03:57.585Z,0.70
2022-10-23T04:06:46.268Z,0.70
2022-10-23T04:09:34.747Z,0.70
2022-10-23T04:12:23.254Z,0.70
2022-10-23T04:15:12.177Z,0.80
2022-10-23T04:18:00.686Z,0.90
2022-10-23T04:20:51.807Z,0.87
2022-10-23T04:23:40.172Z,0.90
2022-10-23T04:26:28.574Z,0.90
2022-10-23T04:29:17.025Z,0.70
2022-10-23T04:32:05.751Z,0.73
2022-10-23T04:34:54.156Z,1.67
2022-10-23T04:37:44.263Z,8.33
2022-10-23T04:40:32.930Z,8.00
2022-10-23T04:43:26.246Z,3.37
2022-10-23T04:46:14.719Z,1.57
2022-10-23T04:49:03.103Z,1.20
2022-10-23T04:51:51.483Z,1.20
2022-10-23T04:54:41.324Z,1.20
2022-10-23T04:57:29.918Z,1.03
2022-10-23T05:00:19.100Z,1.30
2022-10-23T05:03:07.443Z,1.23
2022-10-23T05:05:56.676Z,18.87
2022-10-23T05:08:45.038Z,8.60
2022-10-23T05:11:34.780Z,2.60
2022-10-23T05:14:23.403Z,1.40
2022-10-23T05:17:15.093Z,1.10
2022-10-23T05:20:06.315Z,1.30
2022-10-23T05:22:56.919Z,0.97
2022-10-23T05:25:45.299Z,1.40
2022-10-23T05:28:35.064Z,1.43
2022-10-23T05:31:24.598Z,1.40
2022-10-23T05:34:14.413Z,1.60
2022-10-23T05:37:03.000Z,1.20
2022-10-23T05:39:51.606Z,1.50
2022-10-23T05:42:41.711Z,1.47
2022-10-23T05:45:31.671Z,1.70
2022-10-23T05:48:29.999Z,1.67
2022-10-23T05:51:23.301Z,1.57
2022-10-23T05:54:11.715Z,2.43
2022-10-23T05:57:00.115Z,7.33
2022-10-23T05:59:48.500Z,5.57
2022-10-23T06:02:38.380Z,2.13
2022-10-23T06:05:26.878Z,1.50
2022-10-23T06:08:15.266Z,1.80
2022-10-23T06:11:08.669Z,2.27
2022-10-23T06:16:50.313Z,2.20
2022-10-23T06:19:40.063Z,1.70
2022-10-23T06:22:28.505Z,1.70
2022-10-23T06:25:17.043Z,2.07
2022-10-23T06:28:05.418Z,2.00
2022-10-23T06:30:53.807Z,2.17
2022-10-23T06:33:42.775Z,6.43
2022-10-23T06:36:32.695Z,3.17
2022-10-23T06:39:22.225Z,1.90
2022-10-23T06:42:10.764Z,1.83
2022-10-23T06:45:03.297Z,1.97
2022-10-23T06:47:54.759Z,2.10
2022-10-23T06:50:43.168Z,2.00
2022-10-23T06:53:33.087Z,2.20
2022-10-23T06:56:21.463Z,2.00
2022-10-23T06:59:09.860Z,2.27
2022-10-23T07:01:58.268Z,1.90
2022-10-23T07:04:46.651Z,1.90
2022-10-23T07:07:35.107Z,2.20
2022-10-23T07:10:25.138Z,2.53
2022-10-23T07:13:13.808Z,2.10
2022-10-23T07:16:11.144Z,2.20
2022-10-23T07:19:01.343Z,2.37
2022-10-23T07:21:49.738Z,2.57
2022-10-23T07:24:38.645Z,2.50
2022-10-23T07:27:28.642Z,2.33
2022-10-23T07:30:17.446Z,2.10
2022-10-23T07:33:05.816Z,2.07
2022-10-23T07:35:54.287Z,1.90
2022-10-23T07:38:42.943Z,2.20
2022-10-23T07:41:31.340Z,2.20
2022-10-23T07:44:23.157Z,2.60
2022-10-23T07:47:14.083Z,2.47
2022-10-23T07:50:02.458Z,2.47
2022-10-23T07:52:50.871Z,2.57
2022-10-23T07:55:39.250Z,2.13
2022-10-23T07:58:28.411Z,1.97
2022-10-23T08:01:20.475Z,2.20
2022-10-23T08:04:09.819Z,2.20
2022-10-23T08:06:58.223Z,1.50
2022-10-23T08:09:46.651Z,1.60
2022-10-23T08:12:35.028Z,2.20
2022-10-23T08:15:23.390Z,3.50
2022-10-23T08:18:13.201Z,4.30
2022-10-23T08:21:03.138Z,4.13
2022-10-23T08:23:54.077Z,3.93
2022-10-23T08:26:42.566Z,3.53
2022-10-23T08:29:30.940Z,3.40
2022-10-23T08:32:19.317Z,4.37
2022-10-23T08:35:09.971Z,3.20
2022-10-23T08:37:58.367Z,3.80
2022-10-23T08:40:47.474Z,5.40
2022-10-23T08:43:38.477Z,7.20
2022-10-23T08:46:29.956Z,5.60
2022-10-23T08:49:36.924Z,3.93
2022-10-23T08:52:29.938Z,3.60
2022-10-23T08:55:23.094Z,9.27
2022-10-23T08:58:16.177Z,7.93
2022-10-23T09:01:22.403Z,5.03
2022-10-23T09:04:12.069Z,22.73
2022-10-23T09:07:06.174Z,18.10
2022-10-23T09:10:11.886Z,11.20
2022-10-23T09:13:05.407Z,11.13
2022-10-23T09:15:56.782Z,6.00
2022-10-23T09:18:47.292Z,5.20
2022-10-23T09:21:37.292Z,4.70
2022-10-23T09:24:28.451Z,6.53
2022-10-23T09:27:19.061Z,3.20
2022-10-23T09:30:09.059Z,10.83
2022-10-23T09:32:57.607Z,9.43
2022-10-23T09:35:57.803Z,9.43
2022-10-23T09:38:50.684Z,14.50
2022-10-23T09:41:40.787Z,19.23
2022-10-23T09:44:32.050Z,6.90
2022-10-23T09:47:22.692Z,3.97
2022-10-23T09:50:21.700Z,2.67
2022-10-23T09:53:17.072Z,2.60
2022-10-23T09:56:11.816Z,2.87
2022-10-23T09:59:02.853Z,2.67
2022-10-23T10:01:54.529Z,2.50
2022-10-23T10:04:43.297Z,2.60
2022-10-23T10:07:36.022Z,2.97
2022-10-23T10:10:25.543Z,2.80
2022-10-23T10:13:31.990Z,8.43
2022-10-23T10:16:27.917Z,8.33
2022-10-23T10:19:32.264Z,18.07
2022-10-23T10:22:29.682Z,17.20
2022-10-23T10:25:22.031Z,13.30
2022-10-23T10:28:25.267Z,7.07
2022-10-23T10:31:20.124Z,6.30
2022-10-23T10:34:13.756Z,3.00
2022-10-23T10:37:07.523Z,1.83
2022-10-23T10:40:00.118Z,2.10
2022-10-23T10:43:05.227Z,1.80
2022-10-23T10:46:00.251Z,1.80
2022-10-23T10:48:52.527Z,1.90
2022-10-23T10:51:47.769Z,2.03
2022-10-23T10:54:48.653Z,2.10
2022-10-23T10:57:41.322Z,2.40
2022-10-23T11:00:31.764Z,2.00
2022-10-23T11:03:29.930Z,2.00
2022-10-23T11:06:22.060Z,1.83
2022-10-23T11:09:20.680Z,2.90
2022-10-23T11:12:17.125Z,3.70
2022-10-23T11:15:06.368Z,2.50
2022-10-23T11:17:57.365Z,1.83
2022-10-23T11:21:08.086Z,2.10
2022-10-23T11:24:24.300Z,1.90
2022-10-23T11:27:27.537Z,1.73
2022-10-23T11:30:25.301Z,1.60
2022-10-23T11:33:39.291Z,2.23
2022-10-23T11:36:51.606Z,1.70
2022-10-23T11:39:41.144Z,1.90
2022-10-23T11:42:34.070Z,1.90
2022-10-23T11:45:33.985Z,1.90
2022-10-23T11:48:24.627Z,1.53
2022-10-23T11:51:28.736Z,2.00
2022-10-23T11:54:27.179Z,1.60
2022-10-23T11:57:17.726Z,1.80
2022-10-23T12:00:23.301Z,1.80
2022-10-23T12:03:20.818Z,2.30
2022-10-23T12:06:19.820Z,6.73
2022-10-23T12:09:18.872Z,3.50
2022-10-23T12:12:18.054Z,3.50
2022-10-23T12:15:22.797Z,2.73
2022-10-23T12:18:16.255Z,2.40
2022-10-23T12:21:06.851Z,2.03
2022-10-23T12:24:39.586Z,1.77
2022-10-23T12:27:33.331Z,4.53
2022-10-23T12:30:24.708Z,2.10
2022-10-23T12:33:19.960Z,1.77
2022-10-23T12:36:22.568Z,1.70
2022-10-23T12:39:31.974Z,1.60
2022-10-23T12:42:22.754Z,1.70
2022-10-23T12:45:19.392Z,1.60
2022-10-23T12:48:20.109Z,1.60
2022-10-23T12:51:08.578Z,1.80
2022-10-23T12:53:57.132Z,1.57
2022-10-23T12:56:45.986Z,1.70
2022-10-23T12:59:38.107Z,1.80
2022-10-23T13:02:28.159Z,1.90
2022-10-23T13:05:21.776Z,1.83
2022-10-23T13:08:11.399Z,1.60
2022-10-23T13:10:59.902Z,2.43
2022-10-23T13:13:49.436Z,2.70
2022-10-23T13:16:37.865Z,1.77
2022-10-23T13:19:27.517Z,1.57
2022-10-23T13:22:19.969Z,1.90
2022-10-23T13:25:25.281Z,1.90
2022-10-23T13:28:20.231Z,1.60
2022-10-23T13:31:25.863Z,1.50
2022-10-23T13:34:19.575Z,1.90
2022-10-23T13:37:25.610Z,1.63
2022-10-23T13:40:23.455Z,1.70
2022-10-23T13:43:25.144Z,2.93
2022-10-23T13:46:18.083Z,2.33
2022-10-23T13:49:06.592Z,2.40
2022-10-23T13:51:56.484Z,2.20
2022-10-23T13:54:46.290Z,2.00
2022-10-23T13:57:34.658Z,2.00
2022-10-23T14:00:23.232Z,1.97
2022-10-23T14:03:14.702Z,1.80
2022-10-23T14:06:03.477Z,1.70
2022-10-23T14:08:51.994Z,1.90
2022-10-23T14:11:42.010Z,1.60
2022-10-23T14:14:30.471Z,2.00
2022-10-23T14:17:18.902Z,4.80
2022-10-23T14:20:08.466Z,4.20
2022-10-23T14:22:57.231Z,3.77
2022-10-23T14:25:45.649Z,2.80
2022-10-23T14:28:35.776Z,2.80
2022-10-23T14:31:24.375Z,2.50
2022-10-23T14:34:13.536Z,2.40
2022-10-23T14:37:08.891Z,2.87
2022-10-23T14:39:57.846Z,2.63
2022-10-23T14:42:46.470Z,2.97
2022-10-23T14:45:37.516Z,3.30
2022-10-23T14:48:25.943Z,3.00
2022-10-23T14:51:19.755Z,3.90
2022-10-23T14:54:09.041Z,3.90
2022-10-23T14:56:57.439Z,3.50
2022-10-23T14:59:45.805Z,2.70
2022-10-23T15:02:35.568Z,3.80
2022-10-23T15:05:23.963Z,4.30
2022-10-23T15:08:12.348Z,3.50
2022-10-23T15:11:01.459Z,2.77
2022-10-23T15:13:49.908Z,3.40
2022-10-23T15:16:41.529Z,2.90
2022-10-23T15:19:31.600Z,3.53
2022-10-23T15:22:20.636Z,2.90
2022-10-23T15:25:11.294Z,2.93
2022-10-23T15:28:01.552Z,2.93
2022-10-23T15:30:49.947Z,3.47
2022-10-23T15:33:38.932Z,3.70
2022-10-23T15:36:28.703Z,3.50
2022-10-23T15:39:19.265Z,3.30
2022-10-23T15:42:08.272Z,3.10
2022-10-23T15:44:56.659Z,3.70
2022-10-23T15:47:45.376Z,4.20
2022-10-23T15:50:34.247Z,13.00
2022-10-23T15:53:24.053Z,5.73
2022-10-23T15:56:12.431Z,3.10
2022-10-23T15:59:11.773Z,3.10
2022-10-23T16:02:00.639Z,3.57
2022-10-23T16:04:49.145Z,4.00
2022-10-23T16:07:39.482Z,3.63
2022-10-23T16:10:30.069Z,4.10
2022-10-23T16:13:18.516Z,4.93
2022-10-23T16:16:07.728Z,4.73
2022-10-23T16:18:56.178Z,6.33
2022-10-23T16:21:44.570Z,5.50
2022-10-23T16:24:33.285Z,11.93
2022-10-23T16:27:23.091Z,10.13
2022-10-23T16:30:14.241Z,5.90
2022-10-23T16:33:02.633Z,4.83
2022-10-23T16:35:51.025Z,6.00
2022-10-23T16:38:39.783Z,6.07
2022-10-23T16:41:28.252Z,7.13
2022-10-23T16:44:18.039Z,9.83
2022-10-23T16:47:07.345Z,16.57
2022-10-23T16:49:55.735Z,15.33
2022-10-23T16:52:44.923Z,7.90
2022-10-23T16:55:33.572Z,7.43
2022-10-23T16:58:25.129Z,7.13
2022-10-23T17:01:18.654Z,11.40
2022-10-23T17:04:08.227Z,12.80
2022-10-23T17:06:56.672Z,12.50
2022-10-23T17:09:46.640Z,12.80
2022-10-23T17:12:36.931Z,9.93
2022-10-23T17:15:25.391Z,11.93
2022-10-23T17:18:15.561Z,8.00
2022-10-23T17:21:04.107Z,10.33
2022-10-23T17:23:52.900Z,8.90
2022-10-23T17:26:41.867Z,6.73
2022-10-23T17:29:30.381Z,7.80
2022-10-23T17:32:19.348Z,7.53
2022-10-23T17:35:09.805Z,13.57
2022-10-23T17:38:01.319Z,11.73
2022-10-23T17:40:50.364Z,11.80
2022-10-23T17:43:38.847Z,8.73
2022-10-23T17:46:29.335Z,8.70
2022-10-23T17:49:17.877Z,9.17
2022-10-23T17:52:10.299Z,8.47
2022-10-23T17:55:01.234Z,7.50
2022-10-23T17:57:49.902Z,8.70
2022-10-23T18:00:39.328Z,12.00
2022-10-23T18:03:28.048Z,14.37
2022-10-23T18:06:18.677Z,9.70
2022-10-23T18:09:08.869Z,9.73
2022-10-23T18:11:57.486Z,9.63
2022-10-23T18:14:46.270Z,10.17
2022-10-23T18:17:36.983Z,8.67
2022-10-23T18:20:25.670Z,14.33
2022-10-23T18:23:14.357Z,11.73
2022-10-23T18:26:05.865Z,10.60
2022-10-23T18:28:57.227Z,10.60
2022-10-23T18:31:48.236Z,12.67
2022-10-23T18:34:37.077Z,11.30
2022-10-23T18:37:28.885Z,11.60
2022-10-23T18:40:23.150Z,9.77
2022-10-23T18:43:31.298Z,9.20
2022-10-23T18:46:24.604Z,8.50
2022-10-23T18:49:13.574Z,8.07
2022-10-23T18:52:02.217Z,7.63
2022-10-23T18:54:50.735Z,7.77
2022-10-23T18:57:39.782Z,9.63
2022-10-23T19:00:29.745Z,8.73
2022-10-23T19:03:18.118Z,7.93
2022-10-23T19:06:07.721Z,6.93
2022-10-23T19:08:56.208Z,7.00
2022-10-23T19:11:45.534Z,16.30
2022-10-23T19:14:33.879Z,15.70
2022-10-23T19:17:26.606Z,24.07
2022-10-23T19:20:17.008Z,50.30
2022-10-23T19:23:06.924Z,25.50
2022-10-23T19:25:55.341Z,31.73
2022-10-23T19:28:45.936Z,18.97
2022-10-23T19:31:34.402Z,9.57
2022-10-23T19:34:25.343Z,9.47
2022-10-23T19:40:09.294Z,8.83
2022-10-23T19:42:57.709Z,7.53
2022-10-23T19:45:46.116Z,8.37
2022-10-23T19:48:34.600Z,6.37
2022-10-23T19:51:24.340Z,7.00
2022-10-23T19:54:13.167Z,6.97
2022-10-23T19:57:02.470Z,6.43
2022-10-23T19:59:51.143Z,6.03
2022-10-23T20:02:39.576Z,6.17
2022-10-23T20:05:28.025Z,6.87
2022-10-23T20:08:18.134Z,6.20
2022-10-23T20:11:06.995Z,6.87
2022-10-23T20:13:56.064Z,16.90
2022-10-23T20:16:45.846Z,11.67
2022-10-23T20:19:34.901Z,7.50
2022-10-23T20:22:23.656Z,7.17
2022-10-23T20:25:13.408Z,7.00
2022-10-23T20:28:01.823Z,6.93
2022-10-23T20:30:50.199Z,7.50
2022-10-23T20:33:39.335Z,7.47
2022-10-23T20:36:30.113Z,7.40
2022-10-23T20:39:20.831Z,6.87
2022-10-23T20:42:10.611Z,6.70
2022-10-23T20:44:58.959Z,6.10
2022-10-23T20:47:47.887Z,8.87
2022-10-23T20:50:36.391Z,16.50
2022-10-23T20:53:24.771Z,7.00
2022-10-23T20:56:15.158Z,5.63
2022-10-23T20:59:07.135Z,5.03
2022-10-23T21:01:56.311Z,4.80
2022-10-23T21:04:45.167Z,5.03
2022-10-23T21:07:33.564Z,4.40
2022-10-23T21:10:21.960Z,4.03
2022-10-23T21:13:10.318Z,4.63
2022-10-23T21:16:00.162Z,4.67
2022-10-23T21:18:48.719Z,3.60
2022-10-23T21:21:37.103Z,5.43
2022-10-23T21:24:25.477Z,5.73
2022-10-23T21:27:15.149Z,6.33
2022-10-23T21:30:03.867Z,5.30
2022-10-23T21:32:53.606Z,4.13
2022-10-23T21:35:52.233Z,3.80
2022-10-23T21:38:47.776Z,3.60
2022-10-23T21:41:36.341Z,3.80
2022-10-23T21:44:24.710Z,4.10
2022-10-23T21:47:13.062Z,3.50
2022-10-23T21:50:02.850Z,3.70
2022-10-23T21:52:52.697Z,3.90
2022-10-23T21:55:41.062Z,3.83
2022-10-23T21:58:29.461Z,3.87
2022-10-23T22:01:17.977Z,4.00
2022-10-23T22:04:06.522Z,4.10
2022-10-23T22:06:56.464Z,4.17
2022-10-23T22:09:45.269Z,4.83
2022-10-23T22:12:33.887Z,4.50
2022-10-23T22:15:22.280Z,3.73
2022-10-23T22:18:10.678Z,3.43
2022-10-23T22:21:01.915Z,3.50
2022-10-23T22:23:52.042Z,3.43
2022-10-23T22:26:42.571Z,3.00
2022-10-23T22:29:30.991Z,3.80
2022-10-23T22:35:08.620Z,3.00
2022-10-23T22:37:56.973Z,2.90
2022-10-23T22:40:46.878Z,2.93
2022-10-23T22:43:35.323Z,3.10
2022-10-23T22:46:24.319Z,3.17
2022-10-23T22:49:12.715Z,2.80
2022-10-23T22:52:01.110Z,2.70
2022-10-23T22:54:49.650Z,2.60
2022-10-23T22:57:39.399Z,2.80
2022-10-23T23:00:27.767Z,2.90
2022-10-23T23:03:16.255Z,2.93
2022-10-23T23:06:05.617Z,2.80
2022-10-23T23:08:54.680Z,2.90
2022-10-23T23:11:51.642Z,3.17
2022-10-23T23:14:43.089Z,3.20
2022-10-23T23:17:31.466Z,2.90
2022-10-23T23:20:20.011Z,3.50
2022-10-23T23:23:08.838Z,3.47
2022-10-23T23:25:57.284Z,3.60
2022-10-23T23:28:45.831Z,3.37
2022-10-23T23:31:35.596Z,3.23
2022-10-23T23:34:23.994Z,3.23
2022-10-23T23:37:12.373Z,3.10
2022-10-23T23:40:00.742Z,3.03
2022-10-23T23:42:49.143Z,3.40
2022-10-23T23:45:37.514Z,3.07
2022-10-23T23:48:27.660Z,3.30
2022-10-23T23:51:16.127Z,3.53
2022-10-23T23:54:04.950Z,3.23
2022-10-23T23:56:53.307Z,4.00
2022-10-23T23:59:42.434Z,3.40
